sensor_id;sensor_type;location;lat;lon;timestamp;pressure;altitude;pressure_sealevel;temperature;humidity
70546;BME280;58098;51.680;5.134;2023-03-04T00:00:23;102776.50;;;5.30;100.00
70546;BME280;58098;51.680;5.134;2023-03-04T00:02:48;102769.88;;;5.20;100.00
70546;BME280;58098;51.680;5.134;2023-03-04T00:05:14;102774.75;;;5.30;100.00
70546;BME280;58098;51.680;5.134;2023-03-04T00:07:39;102767.94;;;5.28;100.00
70546;BME280;58098;51.680;5.134;2023-03-04T00:10:05;102763.47;;;5.33;100.00
70546;BME280;58098;51.680;5.134;2023-03-04T00:12:30;102753.44;;;5.21;100.00
70546;BME280;58098;51.680;5.134;2023-03-04T00:14:56;102751.09;;;5.12;100.00
70546;BME280;58098;51.680;5.134;2023-03-04T00:17:21;102767.22;;;5.23;100.00
70546;BME280;58098;51.680;5.134;2023-03-04T00:19:47;102752.84;;;5.11;100.00
70546;BME280;58098;51.680;5.134;2023-03-04T00:22:13;102763.97;;;5.15;100.00
70546;BME280;58098;51.680;5.134;2023-03-04T00:24:38;102770.69;;;5.22;100.00
70546;BME280;58098;51.680;5.134;2023-03-04T00:27:03;102760.41;;;5.19;100.00
70546;BME280;58098;51.680;5.134;2023-03-04T00:29:29;102771.56;;;5.21;100.00
70546;BME280;58098;51.680;5.134;2023-03-04T00:31:54;102775.72;;;5.28;100.00
70546;BME280;58098;51.680;5.134;2023-03-04T00:34:20;102759.66;;;5.14;100.00
70546;BME280;58098;51.680;5.134;2023-03-04T00:36:45;102771.41;;;5.27;100.00
70546;BME280;58098;51.680;5.134;2023-03-04T00:39:11;102762.97;;;5.19;100.00
70546;BME280;58098;51.680;5.134;2023-03-04T00:41:37;102757.19;;;5.11;100.00
70546;BME280;58098;51.680;5.134;2023-03-04T00:44:03;102764.63;;;5.23;100.00
70546;BME280;58098;51.680;5.134;2023-03-04T00:46:29;102755.31;;;5.16;100.00
70546;BME280;58098;51.680;5.134;2023-03-04T00:48:54;102750.97;;;5.16;100.00
70546;BME280;58098;51.680;5.134;2023-03-04T00:51:19;102737.31;;;5.11;100.00
70546;BME280;58098;51.680;5.134;2023-03-04T00:53:45;102754.38;;;5.18;100.00
70546;BME280;58098;51.680;5.134;2023-03-04T00:56:11;102751.75;;;5.20;100.00
70546;BME280;58098;51.680;5.134;2023-03-04T00:58:37;102751.38;;;5.35;100.00
70546;BME280;58098;51.680;5.134;2023-03-04T01:01:03;102772.16;;;5.30;100.00
70546;BME280;58098;51.680;5.134;2023-03-04T01:03:29;102743.94;;;5.21;100.00
70546;BME280;58098;51.680;5.134;2023-03-04T01:05:56;102765.19;;;5.34;100.00
70546;BME280;58098;51.680;5.134;2023-03-04T01:08:22;102757.66;;;5.25;100.00
70546;BME280;58098;51.680;5.134;2023-03-04T01:10:47;102755.09;;;5.23;100.00
70546;BME280;58098;51.680;5.134;2023-03-04T01:13:13;102772.34;;;5.24;100.00
70546;BME280;58098;51.680;5.134;2023-03-04T01:15:38;102768.94;;;5.22;100.00
70546;BME280;58098;51.680;5.134;2023-03-04T01:18:03;102763.09;;;5.16;100.00
70546;BME280;58098;51.680;5.134;2023-03-04T01:20:29;102760.56;;;5.13;100.00
70546;BME280;58098;51.680;5.134;2023-03-04T01:22:54;102774.25;;;5.18;100.00
70546;BME280;58098;51.680;5.134;2023-03-04T01:25:19;102767.44;;;5.14;100.00
70546;BME280;58098;51.680;5.134;2023-03-04T01:27:45;102761.44;;;5.12;100.00
70546;BME280;58098;51.680;5.134;2023-03-04T01:30:10;102758.00;;;5.11;100.00
70546;BME280;58098;51.680;5.134;2023-03-04T01:32:36;102769.13;;;5.15;100.00
70546;BME280;58098;51.680;5.134;2023-03-04T01:35:01;102763.22;;;5.10;100.00
70546;BME280;58098;51.680;5.134;2023-03-04T01:37:26;102759.78;;;5.11;100.00
70546;BME280;58098;51.680;5.134;2023-03-04T01:39:52;102759.84;;;5.08;100.00
70546;BME280;58098;51.680;5.134;2023-03-04T01:42:20;102752.88;;;5.10;100.00
70546;BME280;58098;51.680;5.134;2023-03-04T01:44:47;102755.41;;;5.13;100.00
70546;BME280;58098;51.680;5.134;2023-03-04T01:47:13;102756.09;;;5.19;100.00
70546;BME280;58098;51.680;5.134;2023-03-04T01:49:39;102741.47;;;5.17;100.00
70546;BME280;58098;51.680;5.134;2023-03-04T01:52:05;102732.75;;;5.21;100.00
70546;BME280;58098;51.680;5.134;2023-03-04T01:54:34;102732.91;;;5.15;100.00
70546;BME280;58098;51.680;5.134;2023-03-04T01:56:59;102710.75;;;5.05;100.00
70546;BME280;58098;51.680;5.134;2023-03-04T01:59:27;102736.47;;;5.11;100.00
70546;BME280;58098;51.680;5.134;2023-03-04T02:01:57;102727.81;;;5.12;100.00
70546;BME280;58098;51.680;5.134;2023-03-04T02:04:25;102720.91;;;5.12;100.00
70546;BME280;58098;51.680;5.134;2023-03-04T02:06:52;102717.50;;;5.10;100.00
70546;BME280;58098;51.680;5.134;2023-03-04T02:09:19;102716.72;;;5.08;100.00
70546;BME280;58098;51.680;5.134;2023-03-04T02:11:45;102715.88;;;5.06;100.00
70546;BME280;58098;51.680;5.134;2023-03-04T02:14:12;102717.63;;;5.06;100.00
70546;BME280;58098;51.680;5.134;2023-03-04T02:16:38;102709.03;;;5.05;100.00
70546;BME280;58098;51.680;5.134;2023-03-04T02:19:13;102711.69;;;5.02;100.00
70546;BME280;58098;51.680;5.134;2023-03-04T02:21:40;102702.84;;;5.11;100.00
70546;BME280;58098;51.680;5.134;2023-03-04T02:26:49;102699.34;;;5.12;100.00
70546;BME280;58098;51.680;5.134;2023-03-04T02:29:16;102706.97;;;5.18;100.00
70546;BME280;58098;51.680;5.134;2023-03-04T02:31:46;102711.28;;;5.17;100.00
70546;BME280;58098;51.680;5.134;2023-03-04T02:34:19;102712.88;;;5.23;100.00
70546;BME280;58098;51.680;5.134;2023-03-04T02:36:48;102690.63;;;5.16;100.00
70546;BME280;58098;51.680;5.134;2023-03-04T02:41:51;102697.56;;;5.14;100.00
70546;BME280;58098;51.680;5.134;2023-03-04T02:44:18;102695.50;;;5.26;100.00
70546;BME280;58098;51.680;5.134;2023-03-04T02:46:45;102684.63;;;5.14;100.00
70546;BME280;58098;51.680;5.134;2023-03-04T02:49:10;102692.16;;;5.23;100.00
70546;BME280;58098;51.680;5.134;2023-03-04T02:51:36;102674.28;;;5.14;100.00
70546;BME280;58098;51.680;5.134;2023-03-04T02:54:02;102686.28;;;5.18;100.00
70546;BME280;58098;51.680;5.134;2023-03-04T02:56:27;102684.31;;;5.26;100.00
70546;BME280;58098;51.680;5.134;2023-03-04T02:58:53;102676.16;;;5.09;100.00
70546;BME280;58098;51.680;5.134;2023-03-04T03:01:19;102693.97;;;5.19;100.00
70546;BME280;58098;51.680;5.134;2023-03-04T03:03:44;102681.31;;;5.09;100.00
70546;BME280;58098;51.680;5.134;2023-03-04T03:06:09;102693.31;;;5.13;100.00
70546;BME280;58098;51.680;5.134;2023-03-04T03:08:35;102685.50;;;5.14;100.00
70546;BME280;58098;51.680;5.134;2023-03-04T03:11:00;102672.06;;;5.00;100.00
70546;BME280;58098;51.680;5.134;2023-03-04T03:13:26;102677.19;;;5.03;100.00
70546;BME280;58098;51.680;5.134;2023-03-04T03:15:52;102685.75;;;5.05;100.00
70546;BME280;58098;51.680;5.134;2023-03-04T03:18:18;102671.34;;;4.95;100.00
70546;BME280;58098;51.680;5.134;2023-03-04T03:20:43;102686.66;;;5.03;100.00
70546;BME280;58098;51.680;5.134;2023-03-04T03:23:08;102667.03;;;4.96;100.00
70546;BME280;58098;51.680;5.134;2023-03-04T03:25:34;102662.72;;;4.95;100.00
70546;BME280;58098;51.680;5.134;2023-03-04T03:27:59;102676.25;;;5.06;100.00
70546;BME280;58098;51.680;5.134;2023-03-04T03:30:25;102679.72;;;5.05;100.00
70546;BME280;58098;51.680;5.134;2023-03-04T03:32:50;102660.16;;;4.95;100.00
70546;BME280;58098;51.680;5.134;2023-03-04T03:35:16;102677.06;;;5.06;100.00
70546;BME280;58098;51.680;5.134;2023-03-04T03:37:41;102651.75;;;4.87;100.00
70546;BME280;58098;51.680;5.134;2023-03-04T03:40:08;102661.84;;;4.96;100.00
70546;BME280;58098;51.680;5.134;2023-03-04T03:42:34;102669.50;;;5.00;100.00
70546;BME280;58098;51.680;5.134;2023-03-04T03:44:59;102665.72;;;5.12;100.00
70546;BME280;58098;51.680;5.134;2023-03-04T03:47:25;102660.53;;;5.12;100.00
70546;BME280;58098;51.680;5.134;2023-03-04T03:49:50;102663.94;;;5.14;100.00
70546;BME280;58098;51.680;5.134;2023-03-04T03:52:15;102664.19;;;5.05;100.00
70546;BME280;58098;51.680;5.134;2023-03-04T03:54:41;102659.91;;;5.04;100.00
70546;BME280;58098;51.680;5.134;2023-03-04T03:57:07;102657.50;;;4.98;100.00
70546;BME280;58098;51.680;5.134;2023-03-04T03:59:32;102671.22;;;5.00;100.00
70546;BME280;58098;51.680;5.134;2023-03-04T04:01:58;102659.28;;;4.96;100.00
70546;BME280;58098;51.680;5.134;2023-03-04T04:04:23;102670.28;;;5.02;100.00
70546;BME280;58098;51.680;5.134;2023-03-04T04:06:48;102673.72;;;5.03;100.00
70546;BME280;58098;51.680;5.134;2023-03-04T04:09:14;102680.63;;;5.02;100.00
70546;BME280;58098;51.680;5.134;2023-03-04T04:11:39;102674.28;;;5.14;100.00
70546;BME280;58098;51.680;5.134;2023-03-04T04:14:04;102671.91;;;5.06;100.00
70546;BME280;58098;51.680;5.134;2023-03-04T04:16:30;102660.19;;;4.93;100.00
70546;BME280;58098;51.680;5.134;2023-03-04T04:18:55;102674.72;;;4.99;100.00
70546;BME280;58098;51.680;5.134;2023-03-04T04:21:20;102663.59;;;4.95;100.00
70546;BME280;58098;51.680;5.134;2023-03-04T04:23:46;102671.06;;;5.06;100.00
70546;BME280;58098;51.680;5.134;2023-03-04T04:26:11;102656.69;;;4.96;100.00
70546;BME280;58098;51.680;5.134;2023-03-04T04:28:36;102662.66;;;4.98;100.00
70546;BME280;58098;51.680;5.134;2023-03-04T04:31:06;102661.81;;;4.97;100.00
70546;BME280;58098;51.680;5.134;2023-03-04T04:33:32;102678.25;;;4.95;100.00
70546;BME280;58098;51.680;5.134;2023-03-04T04:35:57;102671.47;;;4.91;100.00
70546;BME280;58098;51.680;5.134;2023-03-04T04:38:22;102668.97;;;4.88;100.00
70546;BME280;58098;51.680;5.134;2023-03-04T04:40:48;102671.28;;;4.97;100.00
70546;BME280;58098;51.680;5.134;2023-03-04T04:43:14;102672.94;;;5.01;100.00
70546;BME280;58098;51.680;5.134;2023-03-04T04:45:40;102681.44;;;5.04;100.00
70546;BME280;58098;51.680;5.134;2023-03-04T04:48:05;102673.81;;;5.00;100.00
70546;BME280;58098;51.680;5.134;2023-03-04T04:50:31;102656.81;;;4.91;100.00
70546;BME280;58098;51.680;5.134;2023-03-04T04:52:56;102683.28;;;5.01;100.00
70546;BME280;58098;51.680;5.134;2023-03-04T04:55:21;102664.44;;;4.96;100.00
70546;BME280;58098;51.680;5.134;2023-03-04T04:57:47;102663.84;;;4.86;100.00
70546;BME280;58098;51.680;5.134;2023-03-04T05:00:12;102669.69;;;4.93;100.00
70546;BME280;58098;51.680;5.134;2023-03-04T05:02:38;102687.75;;;4.94;100.00
70546;BME280;58098;51.680;5.134;2023-03-04T05:05:05;102685.94;;;4.98;100.00
70546;BME280;58098;51.680;5.134;2023-03-04T05:07:31;102681.56;;;5.00;100.00
70546;BME280;58098;51.680;5.134;2023-03-04T05:09:57;102676.59;;;4.92;100.00
70546;BME280;58098;51.680;5.134;2023-03-04T05:12:22;102687.59;;;5.00;100.00
70546;BME280;58098;51.680;5.134;2023-03-04T05:14:47;102682.56;;;4.96;100.00
70546;BME280;58098;51.680;5.134;2023-03-04T05:17:13;102679.06;;;4.97;100.00
70546;BME280;58098;51.680;5.134;2023-03-04T05:19:38;102656.81;;;4.91;100.00
70546;BME280;58098;51.680;5.134;2023-03-04T05:22:03;102666.22;;;4.94;100.00
70546;BME280;58098;51.680;5.134;2023-03-04T05:24:29;102669.63;;;4.96;100.00
70546;BME280;58098;51.680;5.134;2023-03-04T05:26:54;102678.09;;;5.01;100.00
70546;BME280;58098;51.680;5.134;2023-03-04T05:29:19;102666.09;;;4.98;100.00
70546;BME280;58098;51.680;5.134;2023-03-04T05:31:45;102662.81;;;4.92;100.00
70546;BME280;58098;51.680;5.134;2023-03-04T05:34:10;102682.50;;;4.97;100.00
70546;BME280;58098;51.680;5.134;2023-03-04T05:36:36;102651.22;;;4.74;100.00
70546;BME280;58098;51.680;5.134;2023-03-04T05:39:01;102672.53;;;4.82;100.00
70546;BME280;58098;51.680;5.134;2023-03-04T05:41:26;102671.75;;;4.80;100.00
70546;BME280;58098;51.680;5.134;2023-03-04T05:43:51;102687.78;;;4.93;100.00
70546;BME280;58098;51.680;5.134;2023-03-04T05:46:17;102691.19;;;4.95;100.00
70546;BME280;58098;51.680;5.134;2023-03-04T05:48:48;102689.50;;;4.94;100.00
70546;BME280;58098;51.680;5.134;2023-03-04T05:51:13;102698.19;;;4.91;100.00
70546;BME280;58098;51.680;5.134;2023-03-04T05:53:40;102692.00;;;4.97;100.00
70546;BME280;58098;51.680;5.134;2023-03-04T05:56:10;102668.53;;;4.71;100.00
70546;BME280;58098;51.680;5.134;2023-03-04T05:58:35;102697.53;;;4.83;100.00
70546;BME280;58098;51.680;5.134;2023-03-04T06:01:01;102664.34;;;4.66;100.00
70546;BME280;58098;51.680;5.134;2023-03-04T06:03:27;102696.00;;;4.75;100.00
70546;BME280;58098;51.680;5.134;2023-03-04T06:05:52;102703.38;;;4.90;100.00
70546;BME280;58098;51.680;5.134;2023-03-04T06:08:18;102683.00;;;4.78;100.00
70546;BME280;58098;51.680;5.134;2023-03-04T06:10:43;102690.00;;;4.74;100.00
70546;BME280;58098;51.680;5.134;2023-03-04T06:13:09;102701.84;;;4.83;100.00
70546;BME280;58098;51.680;5.134;2023-03-04T06:15:34;102685.81;;;4.68;100.00
70546;BME280;58098;51.680;5.134;2023-03-04T06:18:00;102689.38;;;4.64;100.00
70546;BME280;58098;51.680;5.134;2023-03-04T06:20:25;102703.13;;;4.66;100.00
70546;BME280;58098;51.680;5.134;2023-03-04T06:22:51;102697.88;;;4.70;100.00
70546;BME280;58098;51.680;5.134;2023-03-04T06:25:16;102700.38;;;4.73;100.00
70546;BME280;58098;51.680;5.134;2023-03-04T06:27:41;102685.66;;;4.75;100.00
70546;BME280;58098;51.680;5.134;2023-03-04T06:30:07;102679.81;;;4.68;100.00
70546;BME280;58098;51.680;5.134;2023-03-04T06:32:33;102688.38;;;4.70;100.00
70546;BME280;58098;51.680;5.134;2023-03-04T06:34:58;102672.22;;;4.60;100.00
70546;BME280;58098;51.680;5.134;2023-03-04T06:37:24;102694.38;;;4.71;100.00
70546;BME280;58098;51.680;5.134;2023-03-04T06:39:49;102689.16;;;4.74;100.00
70546;BME280;58098;51.680;5.134;2023-03-04T06:42:14;102700.34;;;4.74;100.00
70546;BME280;58098;51.680;5.134;2023-03-04T06:44:40;102691.75;;;4.74;100.00
70546;BME280;58098;51.680;5.134;2023-03-04T06:47:06;102705.34;;;4.80;100.00
70546;BME280;58098;51.680;5.134;2023-03-04T06:49:31;102701.97;;;4.78;100.00
70546;BME280;58098;51.680;5.134;2023-03-04T06:51:56;102706.16;;;4.82;100.00
70546;BME280;58098;51.680;5.134;2023-03-04T06:54:22;102699.31;;;4.80;100.00
70546;BME280;58098;51.680;5.134;2023-03-04T06:56:47;102696.75;;;4.80;100.00
70546;BME280;58098;51.680;5.134;2023-03-04T06:59:12;102704.50;;;4.80;100.00
70546;BME280;58098;51.680;5.134;2023-03-04T07:01:38;102704.47;;;4.81;100.00
70546;BME280;58098;51.680;5.134;2023-03-04T07:04:03;102695.13;;;4.76;100.00
70546;BME280;58098;51.680;5.134;2023-03-04T07:06:29;102697.47;;;4.85;100.00
70546;BME280;58098;51.680;5.134;2023-03-04T07:08:54;102693.84;;;4.92;100.00
70546;BME280;58098;51.680;5.134;2023-03-04T07:11:20;102704.41;;;4.84;100.00
70546;BME280;58098;51.680;5.134;2023-03-04T07:13:46;102722.34;;;4.90;100.00
70546;BME280;58098;51.680;5.134;2023-03-04T07:16:15;102708.75;;;4.82;100.00
70546;BME280;58098;51.680;5.134;2023-03-04T07:18:42;102719.63;;;4.95;100.00
70546;BME280;58098;51.680;5.134;2023-03-04T07:21:07;102715.69;;;4.82;100.00
70546;BME280;58098;51.680;5.134;2023-03-04T07:23:34;102722.59;;;4.80;100.00
70546;BME280;58098;51.680;5.134;2023-03-04T07:25:59;102721.72;;;4.81;100.00
70546;BME280;58098;51.680;5.134;2023-03-04T07:28:25;102737.13;;;4.85;100.00
70546;BME280;58098;51.680;5.134;2023-03-04T07:30:50;102745.84;;;4.81;100.00
70546;BME280;58098;51.680;5.134;2023-03-04T07:33:15;102727.25;;;4.67;100.00
70546;BME280;58098;51.680;5.134;2023-03-04T07:35:41;102745.06;;;4.78;100.00
70546;BME280;58098;51.680;5.134;2023-03-04T07:38:06;102745.97;;;4.77;100.00
70546;BME280;58098;51.680;5.134;2023-03-04T07:40:32;102732.38;;;4.68;100.00
70546;BME280;58098;51.680;5.134;2023-03-04T07:42:57;102750.06;;;4.85;100.00
70546;BME280;58098;51.680;5.134;2023-03-04T07:45:23;102755.91;;;4.92;100.00
70546;BME280;58098;51.680;5.134;2023-03-04T07:47:49;102759.97;;;5.02;100.00
70546;BME280;58098;51.680;5.134;2023-03-04T07:50:15;102753.00;;;5.05;100.00
70546;BME280;58098;51.680;5.134;2023-03-04T07:52:45;102742.66;;;5.04;100.00
70546;BME280;58098;51.680;5.134;2023-03-04T07:55:13;102751.78;;;5.18;100.00
70546;BME280;58098;51.680;5.134;2023-03-04T07:57:43;102736.31;;;5.17;100.00
70546;BME280;58098;51.680;5.134;2023-03-04T08:00:10;102748.78;;;5.35;100.00
70546;BME280;58098;51.680;5.134;2023-03-04T08:02:36;102729.03;;;5.31;100.00
70546;BME280;58098;51.680;5.134;2023-03-04T08:05:02;102748.47;;;5.46;100.00
70546;BME280;58098;51.680;5.134;2023-03-04T08:07:27;102754.38;;;5.51;100.00
70546;BME280;58098;51.680;5.134;2023-03-04T08:09:53;102742.34;;;5.48;100.00
70546;BME280;58098;51.680;5.134;2023-03-04T08:12:18;102750.59;;;5.62;100.00
70546;BME280;58098;51.680;5.134;2023-03-04T08:14:43;102745.41;;;5.64;100.00
70546;BME280;58098;51.680;5.134;2023-03-04T08:17:09;102740.25;;;5.62;100.00
70546;BME280;58098;51.680;5.134;2023-03-04T08:19:35;102740.06;;;5.68;100.00
70546;BME280;58098;51.680;5.134;2023-03-04T08:22:00;102755.44;;;5.74;100.00
70546;BME280;58098;51.680;5.134;2023-03-04T08:24:26;102750.50;;;5.65;100.00
70546;BME280;58098;51.680;5.134;2023-03-04T08:26:51;102754.31;;;5.84;100.00
70546;BME280;58098;51.680;5.134;2023-03-04T08:29:19;102767.25;;;5.84;100.00
70546;BME280;58098;51.680;5.134;2023-03-04T08:31:47;102769.78;;;5.87;100.00
70546;BME280;58098;51.680;5.134;2023-03-04T08:34:12;102751.44;;;5.95;100.00
70546;BME280;58098;51.680;5.134;2023-03-04T08:36:39;102757.13;;;6.06;100.00
70546;BME280;58098;51.680;5.134;2023-03-04T08:39:05;102752.72;;;6.10;100.00
70546;BME280;58098;51.680;5.134;2023-03-04T08:41:31;102770.56;;;6.20;100.00
70546;BME280;58098;51.680;5.134;2023-03-04T08:43:57;102755.81;;;6.21;100.00
70546;BME280;58098;51.680;5.134;2023-03-04T08:46:22;102761.72;;;6.26;100.00
70546;BME280;58098;51.680;5.134;2023-03-04T08:48:48;102760.47;;;6.39;100.00
70546;BME280;58098;51.680;5.134;2023-03-04T08:51:14;102739.78;;;6.37;100.00
70546;BME280;58098;51.680;5.134;2023-03-04T08:53:41;102747.56;;;6.37;100.00
70546;BME280;58098;51.680;5.134;2023-03-04T08:56:07;102755.69;;;6.53;100.00
70546;BME280;58098;51.680;5.134;2023-03-04T08:58:34;102756.97;;;6.68;100.00
70546;BME280;58098;51.680;5.134;2023-03-04T09:00:59;102740.44;;;6.70;100.00
70546;BME280;58098;51.680;5.134;2023-03-04T09:03:25;102739.41;;;6.76;100.00
70546;BME280;58098;51.680;5.134;2023-03-04T09:05:51;102747.59;;;6.90;100.00
70546;BME280;58098;51.680;5.134;2023-03-04T09:08:17;102720.47;;;6.74;100.00
70546;BME280;58098;51.680;5.134;2023-03-04T09:10:43;102731.66;;;6.74;100.00
70546;BME280;58098;51.680;5.134;2023-03-04T09:13:09;102741.31;;;6.71;100.00
70546;BME280;58098;51.680;5.134;2023-03-04T09:15:45;102730.94;;;6.71;100.00
70546;BME280;58098;51.680;5.134;2023-03-04T09:18:11;102743.41;;;6.86;100.00
70546;BME280;58098;51.680;5.134;2023-03-04T09:20:37;102722.59;;;6.87;100.00
70546;BME280;58098;51.680;5.134;2023-03-04T09:23:02;102725.78;;;6.95;100.00
70546;BME280;58098;51.680;5.134;2023-03-04T09:25:27;102719.38;;;7.05;100.00
70546;BME280;58098;51.680;5.134;2023-03-04T09:27:53;102724.31;;;7.13;100.00
70546;BME280;58098;51.680;5.134;2023-03-04T09:30:18;102707.56;;;6.97;100.00
70546;BME280;58098;51.680;5.134;2023-03-04T09:32:44;102726.31;;;7.05;100.00
70546;BME280;58098;51.680;5.134;2023-03-04T09:35:09;102738.44;;;7.04;100.00
70546;BME280;58098;51.680;5.134;2023-03-04T09:37:35;102700.09;;;6.88;100.00
70546;BME280;58098;51.680;5.134;2023-03-04T09:40:01;102707.03;;;7.12;100.00
70546;BME280;58098;51.680;5.134;2023-03-04T09:44:58;102715.28;;;7.23;100.00
70546;BME280;58098;51.680;5.134;2023-03-04T09:47:25;102721.84;;;7.33;100.00
70546;BME280;58098;51.680;5.134;2023-03-04T09:50:00;102731.38;;;7.32;100.00
70546;BME280;58098;51.680;5.134;2023-03-04T09:53:00;102723.03;;;7.24;100.00
70546;BME280;58098;51.680;5.134;2023-03-04T09:55:33;102713.66;;;7.20;100.00
70546;BME280;58098;51.680;5.134;2023-03-04T10:00:46;102721.56;;;7.42;100.00
70546;BME280;58098;51.680;5.134;2023-03-04T10:03:17;102705.50;;;7.31;100.00
70546;BME280;58098;51.680;5.134;2023-03-04T10:08:26;102735.94;;;7.51;100.00
70546;BME280;58098;51.680;5.134;2023-03-04T10:10:58;102714.75;;;7.38;100.00
70546;BME280;58098;51.680;5.134;2023-03-04T10:13:42;102720.53;;;7.46;100.00
70546;BME280;58098;51.680;5.134;2023-03-04T10:16:13;102736.00;;;7.49;100.00
70546;BME280;58098;51.680;5.134;2023-03-04T10:18:51;102720.19;;;7.32;100.00
70546;BME280;58098;51.680;5.134;2023-03-04T10:21:37;102723.38;;;7.15;100.00
70546;BME280;58098;51.680;5.134;2023-03-04T10:24:13;102719.00;;;7.16;100.00
70546;BME280;58098;51.680;5.134;2023-03-04T10:26:44;102748.00;;;7.28;100.00
70546;BME280;58098;51.680;5.134;2023-03-04T10:29:15;102744.53;;;7.03;100.00
70546;BME280;58098;51.680;5.134;2023-03-04T10:31:41;102737.44;;;7.08;100.00
70546;BME280;58098;51.680;5.134;2023-03-04T10:34:09;102751.41;;;7.04;100.00
70546;BME280;58098;51.680;5.134;2023-03-04T10:37:05;102754.81;;;7.06;100.00
70546;BME280;58098;51.680;5.134;2023-03-04T10:39:42;102743.44;;;7.10;100.00
70546;BME280;58098;51.680;5.134;2023-03-04T10:44:52;102715.16;;;7.03;100.00
70546;BME280;58098;51.680;5.134;2023-03-04T10:47:22;102712.66;;;7.24;100.00
70546;BME280;58098;51.680;5.134;2023-03-04T10:49:53;102719.22;;;7.35;100.00
70546;BME280;58098;51.680;5.134;2023-03-04T10:54:57;102723.34;;;7.40;100.00
70546;BME280;58098;51.680;5.134;2023-03-04T10:57:41;102701.59;;;7.43;100.00
70546;BME280;58098;51.680;5.134;2023-03-04T11:02:43;102711.38;;;7.36;100.00
70546;BME280;58098;51.680;5.134;2023-03-04T11:07:42;102690.88;;;7.98;100.00
70546;BME280;58098;51.680;5.134;2023-03-04T11:10:37;102680.59;;;8.17;100.00
70546;BME280;58098;51.680;5.134;2023-03-04T11:13:00;102689.59;;;8.31;100.00
70546;BME280;58098;51.680;5.134;2023-03-04T11:15:27;102688.16;;;8.23;100.00
70546;BME280;58098;51.680;5.134;2023-03-04T11:18:02;102678.88;;;7.94;100.00
70546;BME280;58098;51.680;5.134;2023-03-04T11:20:36;102674.63;;;7.93;100.00
70546;BME280;58098;51.680;5.134;2023-03-04T11:23:15;102670.66;;;7.83;100.00
70546;BME280;58098;51.680;5.134;2023-03-04T11:25:43;102677.78;;;7.78;100.00
70546;BME280;58098;51.680;5.134;2023-03-04T11:28:20;102675.28;;;7.75;100.00
70546;BME280;58098;51.680;5.134;2023-03-04T11:30:54;102669.78;;;7.61;100.00
70546;BME280;58098;51.680;5.134;2023-03-04T11:33:36;102667.84;;;7.66;100.00
70546;BME280;58098;51.680;5.134;2023-03-04T11:36:28;102671.59;;;7.59;100.00
70546;BME280;58098;51.680;5.134;2023-03-04T11:38:57;102648.53;;;7.26;100.00
70546;BME280;58098;51.680;5.134;2023-03-04T11:41:42;102667.16;;;7.38;100.00
70546;BME280;58098;51.680;5.134;2023-03-04T11:44:10;102655.66;;;7.21;100.00
70546;BME280;58098;51.680;5.134;2023-03-04T12:08:20;102641.91;;;8.31;100.00
70546;BME280;58098;51.680;5.134;2023-03-04T12:16:14;102629.88;;;7.85;100.00
70546;BME280;58098;51.680;5.134;2023-03-04T12:21:57;102630.06;;;7.57;100.00
70546;BME280;58098;51.680;5.134;2023-03-04T12:24:43;102631.16;;;7.52;100.00
70546;BME280;58098;51.680;5.134;2023-03-04T12:27:27;102620.31;;;7.64;100.00
70546;BME280;58098;51.680;5.134;2023-03-04T12:30:17;102621.69;;;7.72;100.00
70546;BME280;58098;51.680;5.134;2023-03-04T12:35:36;102598.91;;;7.79;100.00
70546;BME280;58098;51.680;5.134;2023-03-04T12:40:57;102594.41;;;8.27;100.00
70546;BME280;58098;51.680;5.134;2023-03-04T12:43:41;102602.28;;;8.46;100.00
70546;BME280;58098;51.680;5.134;2023-03-04T12:46:33;102578.94;;;8.44;100.00
70546;BME280;58098;51.680;5.134;2023-03-04T12:49:25;102580.94;;;8.58;100.00
70546;BME280;58098;51.680;5.134;2023-03-04T12:54:40;102570.91;;;8.69;100.00
70546;BME280;58098;51.680;5.134;2023-03-04T12:57:18;102572.63;;;8.70;100.00
70546;BME280;58098;51.680;5.134;2023-03-04T13:02:41;102554.34;;;8.31;100.00
70546;BME280;58098;51.680;5.134;2023-03-04T13:08:01;102556.34;;;8.25;100.00
70546;BME280;58098;51.680;5.134;2023-03-04T13:10:29;102566.84;;;8.22;100.00
70546;BME280;58098;51.680;5.134;2023-03-04T13:12:59;102564.88;;;8.07;100.00
70546;BME280;58098;51.680;5.134;2023-03-04T13:25:38;102567.31;;;7.68;100.00
70546;BME280;58098;51.680;5.134;2023-03-04T13:28:17;102571.06;;;7.61;100.00
70546;BME280;58098;51.680;5.134;2023-03-04T13:33:38;102568.19;;;7.45;100.00
70546;BME280;58098;51.680;5.134;2023-03-04T13:36:06;102546.50;;;7.24;100.00
70546;BME280;58098;51.680;5.134;2023-03-04T13:39:02;102552.03;;;7.15;100.00
70546;BME280;58098;51.680;5.134;2023-03-04T13:41:30;102556.03;;;7.24;100.00
70546;BME280;58098;51.680;5.134;2023-03-04T13:44:30;102578.00;;;7.15;100.00
70546;BME280;58098;51.680;5.134;2023-03-04T13:46:51;102577.09;;;6.93;100.00
70546;BME280;58098;51.680;5.134;2023-03-04T13:49:21;102585.84;;;6.89;100.00
70546;BME280;58098;51.680;5.134;2023-03-04T13:51:48;102549.47;;;6.68;100.00
70546;BME280;58098;51.680;5.134;2023-03-04T13:54:31;102578.06;;;6.66;100.00
70546;BME280;58098;51.680;5.134;2023-03-04T13:59:40;102576.03;;;6.74;100.00
70546;BME280;58098;51.680;5.134;2023-03-04T14:02:18;102568.81;;;6.57;100.00
70546;BME280;58098;51.680;5.134;2023-03-04T14:04:56;102581.53;;;6.65;100.00
70546;BME280;58098;51.680;5.134;2023-03-04T14:07:25;102571.75;;;6.73;100.00
70546;BME280;58098;51.680;5.134;2023-03-04T14:10:03;102564.97;;;6.69;100.00
70546;BME280;58098;51.680;5.134;2023-03-04T14:12:31;102540.28;;;6.59;100.00
70546;BME280;58098;51.680;5.134;2023-03-04T14:17:51;102521.53;;;6.51;100.00
70546;BME280;58098;51.680;5.134;2023-03-04T14:22:52;102534.25;;;6.82;100.00